Time;durP1;ratioP1;P1;durP2;ratioP2;P2;SDS_P1;SDS_P2;PMS_P1;PMS_P2;Temp;Humidity;BMP_temperature;BMP_pressure;BME280_temperature;BME280_humidity;BME280_pressure;Samples;Min_cycle;Max_cycle;Signal;HPM_P1;HPM_P2
2021/03/19 00:02:05;;;;;;;6.68;4.80;;;5.90;89.80;;;;;;5013299;28;20496;-71
2021/03/19 00:04:32;;;;;;;4.30;3.90;;;5.80;91.10;;;;;;5012680;28;20416;-71
2021/03/19 00:06:58;;;;;;;4.93;4.53;;;5.80;91.30;;;;;;5009897;28;20402;-72
2021/03/19 00:09:24;;;;;;;4.65;4.25;;;5.80;91.40;;;;;;5010030;28;20744;-70
2021/03/19 00:11:50;;;;;;;5.53;4.17;;;5.80;91.40;;;;;;5010240;28;20546;-72
2021/03/19 00:14:16;;;;;;;4.80;4.40;;;5.80;90.80;;;;;;4997102;28;20878;-71
2021/03/19 00:16:42;;;;;;;5.20;4.50;;;5.90;91.00;;;;;;5008257;28;20427;-71
2021/03/19 00:19:09;;;;;;;5.47;4.50;;;6.10;90.90;;;;;;4996018;28;20390;-70
2021/03/19 00:21:38;;;;;;;5.85;4.53;;;6.10;90.80;;;;;;5005695;28;20513;-70
2021/03/19 00:24:05;;;;;;;5.85;4.88;;;5.90;92.20;;;;;;5022167;28;20405;-71
2021/03/19 00:26:31;;;;;;;4.93;4.40;;;5.60;92.40;;;;;;5012717;28;20393;-71
2021/03/19 00:28:57;;;;;;;5.88;4.93;;;5.50;92.40;;;;;;5012657;28;20795;-69
2021/03/19 00:31:23;;;;;;;5.80;5.20;;;5.50;92.50;;;;;;5012677;28;20412;-69
2021/03/19 00:33:49;;;;;;;5.85;5.00;;;5.60;91.80;;;;;;5013758;28;20467;-69
2021/03/19 00:36:15;;;;;;;5.50;4.90;;;5.70;91.60;;;;;;5013681;28;20488;-70
2021/03/19 00:38:42;;;;;;;5.15;4.57;;;5.70;92.50;;;;;;5012278;28;20842;-71
2021/03/19 00:41:08;;;;;;;4.97;4.43;;;5.80;92.20;;;;;;5013418;28;20404;-71
2021/03/19 00:43:34;;;;;;;5.82;4.50;;;5.80;92.10;;;;;;5005838;28;20830;-71
2021/03/19 00:46:00;;;;;;;6.13;4.55;;;5.90;91.80;;;;;;5005757;28;20437;-71
2021/03/19 00:48:26;;;;;;;5.35;4.65;;;6.00;91.70;;;;;;5013524;28;20413;-72
2021/03/19 00:50:54;;;;;;;5.45;4.95;;;5.90;91.80;;;;;;5009571;28;20770;-71
2021/03/19 00:53:21;;;;;;;6.00;5.23;;;6.00;92.20;;;;;;5009460;28;20485;-71
2021/03/19 00:55:48;;;;;;;5.50;5.00;;;5.80;92.50;;;;;;5007692;28;20389;-72
2021/03/19 00:58:14;;;;;;;5.70;5.20;;;5.70;93.00;;;;;;5007475;28;20808;-71
2021/03/19 01:00:40;;;;;;;4.80;4.38;;;5.60;92.70;;;;;;5000757;28;20389;-71
2021/03/19 01:03:07;;;;;;;4.82;4.22;;;5.70;92.30;;;;;;5013459;28;21003;-71
2021/03/19 01:05:36;;;;;;;3.85;3.55;;;5.70;92.40;;;;;;5004611;28;20415;-72
2021/03/19 01:08:03;;;;;;;3.85;3.45;;;5.70;91.60;;;;;;5012953;28;20389;-71
2021/03/19 01:10:32;;;;;;;4.15;3.80;;;5.70;91.40;;;;;;5018804;28;20401;-72
2021/03/19 01:12:59;;;;;;;4.43;4.07;;;5.60;91.70;;;;;;5011814;28;20954;-71
2021/03/19 01:15:26;;;;;;;5.10;3.97;;;5.50;90.70;;;;;;4994001;28;20406;-71
2021/03/19 01:17:52;;;;;;;5.22;4.25;;;5.40;91.20;;;;;;5004755;28;20472;-71
2021/03/19 01:20:19;;;;;;;4.20;3.80;;;5.50;91.20;;;;;;5011643;28;20820;-71
2021/03/19 01:22:46;;;;;;;4.43;3.60;;;5.50;91.60;;;;;;5003604;28;20405;-72
2021/03/19 01:25:15;;;;;;;4.30;3.65;;;5.40;92.30;;;;;;5008862;28;20393;-72
2021/03/19 01:27:41;;;;;;;4.13;3.67;;;5.40;93.10;;;;;;5011690;28;20396;-71
2021/03/19 01:30:11;;;;;;;4.85;3.50;;;5.40;99.30;;;;;;5012923;28;20427;-71
2021/03/19 01:32:38;;;;;;;4.43;3.30;;;5.40;93.10;;;;;;5012999;28;20416;-71
2021/03/19 01:35:05;;;;;;;3.17;2.53;;;5.30;93.40;;;;;;5012810;28;20910;-71
2021/03/19 01:37:31;;;;;;;3.03;2.83;;;5.40;93.20;;;;;;5012610;28;20421;-71
2021/03/19 01:39:57;;;;;;;3.10;2.80;;;5.50;92.70;;;;;;5005405;28;20468;-72
2021/03/19 01:42:23;;;;;;;2.95;2.67;;;5.60;92.20;;;;;;5009318;28;20394;-71
2021/03/19 01:45:18;;;;;;;3.97;2.70;;;5.50;92.40;;;;;;5006873;28;20393;-71
2021/03/19 01:48:21;;;;;;;3.08;2.88;;;5.60;92.30;;;;;;5005689;28;20821;-71
2021/03/19 01:51:24;;;;;;;3.38;3.10;;;5.80;91.60;;;;;;5009212;28;20391;-71
2021/03/19 01:54:27;;;;;;;3.85;3.53;;;5.70;91.80;;;;;;4998401;28;20390;-71
2021/03/19 01:57:31;;;;;;;3.65;3.35;;;5.70;93.00;;;;;;5001996;28;20408;-71
2021/03/19 02:03:27;;;;;;;4.28;3.38;;;5.50;93.10;;;;;;5006901;28;20467;-68
2021/03/19 02:06:30;;;;;;;3.22;2.67;;;5.60;92.10;;;;;;5012165;28;20392;-69
2021/03/19 02:09:33;;;;;;;3.10;2.80;;;5.40;91.30;;;;;;5007507;28;20388;-68
2021/03/19 02:12:36;;;;;;;4.38;3.28;;;5.30;91.50;;;;;;5001405;28;20393;-68
2021/03/19 02:15:39;;;;;;;3.90;3.05;;;5.50;91.00;;;;;;5012045;28;20480;-68
2021/03/19 02:18:42;;;;;;;4.47;2.90;;;5.50;91.60;;;;;;5012035;28;20416;-68
2021/03/19 02:21:45;;;;;;;3.08;2.75;;;5.60;90.40;;;;;;5008257;28;20913;-69
2021/03/19 02:24:48;;;;;;;3.78;3.08;;;5.60;90.50;;;;;;5020627;28;20475;-68
2021/03/19 02:27:51;;;;;;;3.15;2.90;;;5.50;91.20;;;;;;5020704;28;20396;-69
2021/03/19 02:30:54;;;;;;;3.15;2.95;;;5.60;92.00;;;;;;5002672;28;20391;-69
2021/03/19 02:33:21;;;;;;;3.60;3.33;;;5.70;91.80;;;;;;5011955;28;20381;-69
2021/03/19 02:35:53;;;;;;;3.88;3.58;;;5.70;91.60;;;;;;5012044;28;20482;-69
2021/03/19 02:38:19;;;;;;;4.47;3.30;;;5.60;91.90;;;;;;5010618;28;20429;-69
2021/03/19 02:40:45;;;;;;;3.60;3.30;;;5.70;91.90;;;;;;5027095;28;20420;-68
2021/03/19 02:43:11;;;;;;;4.22;3.83;;;5.70;92.00;;;;;;5010638;28;20401;-68
2021/03/19 02:45:37;;;;;;;4.18;3.78;;;5.70;92.20;;;;;;5011902;28;20737;-69
2021/03/19 02:48:03;;;;;;;4.15;3.80;;;5.50;92.60;;;;;;5010749;28;20397;-69
2021/03/19 02:50:31;;;;;;;3.90;3.53;;;;;;;;;;5007183;28;20393;-70
2021/03/19 02:52:56;;;;;;;3.77;3.47;;;5.30;93.30;;;;;;5012021;28;20412;-68
2021/03/19 02:55:22;;;;;;;3.83;3.50;;;5.10;93.60;;;;;;5010674;28;20405;-69
2021/03/19 02:57:48;;;;;;;3.65;3.35;;;5.00;93.20;;;;;;5027053;28;20447;-69
2021/03/19 03:00:19;;;;;;;3.53;3.23;;;5.00;93.30;;;;;;5027034;28;20419;-69
2021/03/19 03:02:45;;;;;;;3.45;3.15;;;5.20;92.70;;;;;;4992106;28;20810;-69
2021/03/19 03:05:12;;;;;;;3.20;3.00;;;5.30;92.00;;;;;;4992443;28;20426;-69
2021/03/19 03:07:38;;;;;;;3.50;3.20;;;5.30;92.10;;;;;;4982889;28;20491;-69
2021/03/19 03:10:08;;;;;;;3.55;3.25;;;5.40;91.60;;;;;;4991106;28;20418;-68
2021/03/19 03:12:34;;;;;;;3.85;3.10;;;5.50;91.40;;;;;;4992267;28;20403;-69
2021/03/19 03:15:00;;;;;;;3.22;3.03;;;5.50;90.90;;;;;;4992968;28;20431;-69
2021/03/19 03:17:26;;;;;;;2.90;2.70;;;5.40;91.50;;;;;;4994294;28;20415;-69
2021/03/19 03:19:52;;;;;;;2.83;2.63;;;5.60;90.60;;;;;;4987934;28;20865;-71
2021/03/19 03:22:18;;;;;;;3.28;2.75;;;5.60;90.20;;;;;;4995815;28;20401;-69
2021/03/19 03:24:45;;;;;;;4.32;3.22;;;5.70;90.00;;;;;;4997173;28;20459;-69
2021/03/19 03:27:11;;;;;;;3.97;3.28;;;5.60;90.10;;;;;;4994417;28;20395;-72
2021/03/19 03:29:37;;;;;;;3.00;2.80;;;5.60;90.30;;;;;;4995583;28;20390;-73
2021/03/19 03:32:04;;;;;;;4.65;3.50;;;5.60;90.40;;;;;;5002821;28;20415;-73
2021/03/19 03:34:31;;;;;;;3.10;2.80;;;5.60;91.10;;;;;;4987962;28;20493;-73
2021/03/19 03:36:57;;;;;;;3.55;3.08;;;5.60;91.50;;;;;;4995321;28;20437;-73
2021/03/19 03:39:26;;;;;;;3.38;3.08;;;5.60;91.50;;;;;;4993686;28;20452;-72
2021/03/19 03:41:54;;;;;;;3.38;3.17;;;5.50;92.00;;;;;;4988724;28;20400;-72
2021/03/19 03:44:20;;;;;;;3.53;3.23;;;5.50;91.90;;;;;;5010281;28;20472;-72
2021/03/19 03:46:46;;;;;;;3.72;3.42;;;5.50;91.60;;;;;;4995365;28;20394;-72
2021/03/19 03:49:14;;;;;;;3.92;3.53;;;5.40;92.30;;;;;;4994835;28;20497;-74
2021/03/19 03:51:40;;;;;;;3.75;3.35;;;5.20;92.70;;;;;;4995132;28;20478;-75
2021/03/19 03:54:06;;;;;;;3.63;3.33;;;5.20;92.70;;;;;;4995083;28;20398;-75
2021/03/19 03:56:32;;;;;;;4.18;3.78;;;5.10;92.90;;;;;;4995100;28;20769;-75
2021/03/19 03:58:59;;;;;;;3.77;3.27;;;5.10;93.00;;;;;;4994920;28;20995;-75
2021/03/19 04:01:26;;;;;;;3.15;2.85;;;5.00;92.70;;;;;;4995062;28;20419;-75
2021/03/19 04:03:52;;;;;;;3.75;2.67;;;5.00;92.50;;;;;;4987169;28;20415;-74
2021/03/19 04:06:18;;;;;;;3.00;2.70;;;5.10;92.30;;;;;;5008904;28;20410;-75
2021/03/19 04:08:44;;;;;;;3.38;2.90;;;5.20;92.10;;;;;;5009774;28;20402;-75
2021/03/19 04:11:13;;;;;;;2.85;2.65;;;5.30;92.10;;;;;;4994507;28;20754;-75
2021/03/19 04:13:39;;;;;;;2.85;2.60;;;5.40;91.40;;;;;;4993363;28;20460;-74
2021/03/19 04:16:07;;;;;;;2.60;2.40;;;5.50;91.30;;;;;;4994745;28;20406;-75
2021/03/19 04:18:34;;;;;;;3.20;2.70;;;5.50;91.30;;;;;;4994396;28;20422;-75
2021/03/19 04:21:06;;;;;;;3.17;2.80;;;5.60;91.30;;;;;;4994583;28;20501;-75
2021/03/19 04:23:33;;;;;;;3.00;2.63;;;5.60;91.50;;;;;;4989112;28;20388;-75
2021/03/19 04:25:59;;;;;;;2.78;2.58;;;5.60;91.60;;;;;;4992227;28;20413;-75
2021/03/19 04:28:30;;;;;;;3.25;2.95;;;5.60;91.40;;;;;;4994488;28;20398;-75
2021/03/19 04:30:56;;;;;;;3.00;2.80;;;5.60;91.70;;;;;;4994486;28;20391;-75
2021/03/19 04:33:26;;;;;;;3.35;2.88;;;5.50;91.90;;;;;;4994339;28;20397;-75
2021/03/19 04:35:57;;;;;;;3.47;3.20;;;5.40;92.70;;;;;;4993020;28;20956;-75
2021/03/19 04:38:23;;;;;;;3.33;3.10;;;5.40;92.00;;;;;;4994266;28;20422;-75
2021/03/19 04:40:50;;;;;;;2.92;2.72;;;5.50;92.00;;;;;;4994136;28;20477;-75
2021/03/19 04:43:16;;;;;;;3.38;2.83;;;5.40;91.80;;;;;;4994085;28;20398;-75
2021/03/19 04:45:45;;;;;;;3.30;3.00;;;5.40;92.10;;;;;;4994073;28;20410;-75
2021/03/19 04:48:11;;;;;;;3.47;3.17;;;5.40;92.60;;;;;;5003555;28;20398;-75
2021/03/19 04:50:38;;;;;;;3.83;3.30;;;5.30;92.80;;;;;;4994031;28;20445;-75
2021/03/19 04:53:04;;;;;;;3.93;3.30;;;5.30;93.10;;;;;;4994039;28;20417;-75
2021/03/19 04:55:31;;;;;;;3.40;3.10;;;5.30;93.10;;;;;;4993776;28;20394;-75
2021/03/19 04:57:57;;;;;;;3.85;3.53;;;5.20;93.50;;;;;;4993755;28;20758;-75
2021/03/19 05:00:24;;;;;;;5.53;3.80;;;5.10;94.60;;;;;;4993700;28;20394;-75
2021/03/19 05:02:51;;;;;;;6.25;5.65;;;;;;;;;;4993694;28;20494;-74
2021/03/19 05:05:18;;;;;;;11.80;8.50;;;;;;;;;;5008686;28;20414;-75
2021/03/19 05:07:46;;;;;;;7.40;6.70;;;;;;;;;;4993650;28;20873;-75
2021/03/19 05:10:12;;;;;;;4.20;3.80;;;;;;;;;;4993709;28;20762;-74
2021/03/19 05:12:39;;;;;;;5.15;4.63;;;;;;;;;;5008329;28;20410;-74
2021/03/19 05:15:06;;;;;;;5.80;5.00;;;;;;;;;;4993568;28;20430;-75
2021/03/19 05:17:33;;;;;;;4.40;4.00;;;;;;;;;;4985543;28;20430;-75
2021/03/19 05:20:00;;;;;;;5.20;4.20;;;;;;;;;;4993514;28;20514;-75
2021/03/19 05:22:26;;;;;;;3.92;3.63;;;;;;;;;;4992280;28;20904;-75
2021/03/19 05:24:54;;;;;;;4.45;4.05;;;;;;;;;;4986803;28;20403;-75
2021/03/19 05:27:20;;;;;;;3.95;3.65;;;;;;;;;;4993290;28;20402;-74
2021/03/19 05:29:46;;;;;;;4.57;4.17;;;;;;;;;;4993116;28;20430;-75
2021/03/19 05:32:12;;;;;;;4.47;4.07;;;;;;;;;;4991904;28;20421;-75
2021/03/19 05:34:38;;;;;;;5.28;4.65;;;4.80;94.80;;;;;;4992952;28;20402;-74
2021/03/19 05:37:05;;;;;;;4.85;4.45;;;5.00;98.00;;;;;;4992836;28;20416;-75
2021/03/19 05:39:31;;;;;;;4.60;4.20;;;4.90;98.60;;;;;;4992987;28;20398;-75
2021/03/19 05:41:58;;;;;;;4.67;4.27;;;4.70;98.80;;;;;;4993140;28;20751;-75
2021/03/19 05:44:25;;;;;;;5.25;4.75;;;4.60;99.40;;;;;;4987136;28;20892;-75
2021/03/19 05:46:53;;;;;;;6.07;5.22;;;4.50;99.80;;;;;;4987490;28;20793;-75
2021/03/19 05:49:22;;;;;;;4.70;4.30;;;4.50;99.90;;;;;;4992749;28;20881;-75
2021/03/19 05:51:49;;;;;;;4.63;4.22;;;4.50;99.90;;;;;;4993207;28;20827;-75
2021/03/19 05:54:22;;;;;;;4.95;4.55;;;4.60;99.60;;;;;;4992639;28;20440;-75
2021/03/19 05:56:49;;;;;;;5.07;4.55;;;4.60;99.80;;;;;;4992937;28;20996;-75
2021/03/19 05:59:16;;;;;;;5.17;4.77;;;4.60;99.90;;;;;;4993153;28;20510;-75
2021/03/19 06:01:41;;;;;;;5.18;4.70;;;4.50;99.90;;;;;;4992491;28;20406;-74
2021/03/19 06:04:18;;;;;;;5.07;4.60;;;4.50;99.90;;;;;;4992671;28;20394;-74
2021/03/19 06:06:50;;;;;;;4.85;4.32;;;4.60;99.90;;;;;;4990877;28;20817;-75
2021/03/19 06:09:25;;;;;;;5.00;4.60;;;4.70;99.90;;;;;;4991621;28;20443;-75
2021/03/19 06:11:55;;;;;;;4.88;4.47;;;4.60;99.90;;;;;;4991866;28;20575;-73
2021/03/19 06:14:24;;;;;;;5.10;4.70;;;4.60;99.90;;;;;;4991969;28;20449;-74
2021/03/19 06:16:56;;;;;;;5.65;5.15;;;4.50;99.90;;;;;;4990355;28;20417;-75
2021/03/19 06:19:34;;;;;;;5.20;4.70;;;4.60;99.90;;;;;;4991798;28;20767;-75
2021/03/19 06:22:17;;;;;;;5.10;4.60;;;4.70;99.90;;;;;;4991043;28;20420;-75
2021/03/19 06:24:53;;;;;;;5.43;5.00;;;4.90;99.90;;;;;;4992284;28;20421;-74
2021/03/19 06:27:22;;;;;;;6.30;5.70;;;4.80;99.90;;;;;;4988297;28;20399;-75
2021/03/19 06:29:52;;;;;;;6.15;5.60;;;4.80;99.90;;;;;;4991031;28;20394;-74
2021/03/19 06:32:29;;;;;;;6.85;6.15;;;4.70;99.90;;;;;;5007131;28;20482;-75
2021/03/19 06:35:21;;;;;;;6.43;5.93;;;4.70;99.90;;;;;;4990239;28;20398;-74
2021/03/19 06:37:50;;;;;;;6.13;5.53;;;4.70;99.90;;;;;;4991422;28;20920;-75
2021/03/19 06:40:29;;;;;;;6.57;5.65;;;4.90;99.90;;;;;;4989146;28;20459;-75
2021/03/19 06:43:11;;;;;;;6.57;5.97;;;4.80;99.90;;;;;;5004024;28;20462;-75
2021/03/19 06:45:38;;;;;;;6.97;6.28;;;4.60;99.90;;;;;;4987249;28;20460;-75
2021/03/19 06:48:05;;;;;;;6.88;6.28;;;4.80;99.90;;;;;;4992451;28;20398;-74
2021/03/19 06:50:35;;;;;;;7.70;6.40;;;4.70;99.90;;;;;;4996525;28;20426;-74
2021/03/19 06:53:22;;;;;;;6.77;6.17;;;4.60;99.90;;;;;;4995051;28;20454;-75
2021/03/19 06:55:51;;;;;;;7.57;6.70;;;4.60;99.90;;;;;;4990598;28;20497;-75
2021/03/19 06:58:32;;;;;;;7.68;6.63;;;4.70;99.90;;;;;;4994805;28;20414;-75
2021/03/19 07:00:59;;;;;;;8.05;6.15;;;4.50;99.90;;;;;;4992455;28;20488;-75
2021/03/19 07:03:55;;;;;;;7.15;6.45;;;4.40;99.90;;;;;;4990995;28;20925;-75
2021/03/19 07:06:45;;;;;;;6.55;5.70;;;4.40;99.90;;;;;;4991895;28;20410;-75
2021/03/19 07:09:22;;;;;;;6.88;5.65;;;4.50;99.90;;;;;;4994763;28;20398;-75
2021/03/19 07:12:01;;;;;;;6.25;5.47;;;4.50;99.90;;;;;;4990450;28;20448;-75
2021/03/19 07:14:52;;;;;;;5.60;5.10;;;4.60;99.90;;;;;;4996032;28;20477;-75
2021/03/19 07:17:44;;;;;;;5.45;4.90;;;4.60;99.90;;;;;;4995974;28;20460;-74
2021/03/19 07:20:25;;;;;;;6.55;5.45;;;4.70;99.90;;;;;;4995648;28;20405;-75
2021/03/19 07:23:06;;;;;;;6.50;5.50;;;4.70;99.90;;;;;;4996020;28;20417;-75
2021/03/19 07:25:46;;;;;;;9.25;6.10;;;4.80;99.90;;;;;;4995542;28;20390;-75
2021/03/19 07:28:27;;;;;;;6.28;5.68;;;4.60;99.90;;;;;;5010402;28;20405;-74
2021/03/19 07:31:18;;;;;;;6.97;6.22;;;4.60;99.90;;;;;;4997005;28;20390;-75
2021/03/19 07:34:10;;;;;;;5.78;5.13;;;4.80;99.90;;;;;;5000115;28;20836;-74
2021/03/19 07:36:50;;;;;;;6.75;5.55;;;5.10;99.90;;;;;;4989570;28;20764;-74
2021/03/19 07:39:41;;;;;;;6.50;5.82;;;5.30;99.90;;;;;;4999779;28;20448;-75
2021/03/19 07:42:33;;;;;;;7.80;6.05;;;5.40;99.90;;;;;;4991976;28;20410;-74
2021/03/19 07:45:03;;;;;;;7.50;5.82;;;5.60;99.30;;;;;;4996487;28;20566;-75
2021/03/19 07:47:54;;;;;;;6.88;5.57;;;5.80;98.10;;;;;;5015732;28;20398;-75
2021/03/19 07:50:35;;;;;;;5.78;4.97;;;6.00;97.40;;;;;;5010353;28;20448;-75
2021/03/19 07:53:34;;;;;;;6.60;5.03;;;6.30;96.10;;;;;;5009162;28;20501;-75
2021/03/19 07:56:04;;;;;;;5.05;4.55;;;6.20;96.00;;;;;;4997697;28;20399;-75
2021/03/19 07:58:40;;;;;;;5.13;4.47;;;6.20;95.40;;;;;;4993567;28;20444;-75
2021/03/19 08:01:14;;;;;;;6.45;4.32;;;6.30;94.90;;;;;;5011601;28;20489;-74
2021/03/19 08:03:43;;;;;;;5.03;4.20;;;6.60;94.70;;;;;;4994901;28;20927;-74
2021/03/19 08:06:13;;;;;;;4.90;4.00;;;6.80;93.00;;;;;;5011934;28;20461;-74
2021/03/19 08:08:45;;;;;;;4.05;3.65;;;6.90;91.20;;;;;;5009850;28;20447;-74
2021/03/19 08:11:18;;;;;;;4.53;4.10;;;7.00;90.50;;;;;;5004819;28;20489;-74
2021/03/19 08:13:50;;;;;;;3.85;3.55;;;;;;;;;;4999399;28;20407;-75
2021/03/19 08:16:23;;;;;;;4.20;3.78;;;7.20;90.00;;;;;;5003622;28;20474;-74
2021/03/19 08:18:56;;;;;;;3.92;3.25;;;7.50;89.70;;;;;;4996855;28;20414;-75
2021/03/19 08:21:31;;;;;;;4.10;3.60;;;7.90;87.70;;;;;;5006564;28;20420;-75
2021/03/19 08:24:25;;;;;;;4.07;3.40;;;8.00;87.30;;;;;;5005663;28;20394;-74
2021/03/19 08:27:02;;;;;;;4.88;3.60;;;8.00;85.50;;;;;;5000984;28;20483;-75
2021/03/19 08:29:33;;;;;;;5.55;3.50;;;;;;;;;;4991311;28;20417;-74
2021/03/19 08:32:02;;;;;;;4.50;3.42;;;;;;;;;;5010832;28;20877;-74
2021/03/19 08:34:38;;;;;;;4.00;3.50;;;8.00;86.80;;;;;;5002338;28;20402;-75
2021/03/19 08:37:23;;;;;;;3.88;3.42;;;8.60;81.40;;;;;;4997647;28;20401;-75
2021/03/19 08:39:49;;;;;;;2.70;2.50;;;8.60;79.50;;;;;;4994410;28;20486;-75
2021/03/19 08:42:20;;;;;;;3.03;2.72;;;8.50;78.30;;;;;;4996846;28;20761;-75
2021/03/19 08:44:48;;;;;;;2.50;2.30;;;;;;;;;;5006677;28;20399;-75
2021/03/19 08:47:22;;;;;;;4.40;3.00;;;8.60;77.10;;;;;;5013174;28;20418;-75
2021/03/19 08:49:49;;;;;;;3.85;3.17;;;;;;;;;;4995608;28;20792;-75
2021/03/19 08:52:30;;;;;;;4.05;3.05;;;8.30;73.20;;;;;;4993218;28;20885;-74
2021/03/19 08:55:20;;;;;;;4.70;3.08;;;7.50;77.00;;;;;;4992886;28;20791;-74
2021/03/19 08:57:48;;;;;;;3.97;2.67;;;7.50;77.90;;;;;;4989879;28;21052;-74
2021/03/19 09:00:55;;;;;;;4.15;2.72;;;7.60;78.40;;;;;;4997408;28;20442;-75
2021/03/19 09:03:40;;;;;;;2.58;2.33;;;;;;;;;;4986238;28;20430;-73
2021/03/19 09:06:12;;;;;;;3.75;2.55;;;8.00;76.10;;;;;;5007788;28;20409;-74
2021/03/19 09:09:13;;;;;;;3.22;2.67;;;9.20;72.20;;;;;;4992737;28;20398;-75
2021/03/19 09:11:59;;;;;;;2.60;2.40;;;9.50;70.70;;;;;;4984259;28;20461;-75
2021/03/19 09:14:41;;;;;;;3.13;2.58;;;9.60;69.80;;;;;;4989300;28;20902;-75
2021/03/19 09:17:12;;;;;;;2.80;2.50;;;9.40;68.30;;;;;;4992410;28;21292;-74
2021/03/19 09:19:59;;;;;;;3.35;2.90;;;9.70;71.30;;;;;;4990951;28;20481;-74
2021/03/19 09:22:43;;;;;;;3.58;2.88;;;;;;;;;;4989550;28;20477;-74
2021/03/19 09:25:43;;;;;;;3.65;2.58;;;9.70;68.10;;;;;;4992383;28;20394;-75
2021/03/19 09:28:55;;;;;;;3.45;2.72;;;10.40;70.20;;;;;;4991367;28;20410;-74
2021/03/19 09:31:40;;;;;;;2.90;2.63;;;10.70;66.40;;;;;;4992290;28;20395;-75
2021/03/19 09:34:20;;;;;;;3.17;2.88;;;10.60;64.30;;;;;;4992186;28;20434;-74
2021/03/19 09:37:17;;;;;;;4.90;3.60;;;10.40;66.30;;;;;;5007568;28;20415;-75
2021/03/19 09:40:10;;;;;;;3.88;3.50;;;10.50;66.00;;;;;;4978269;28;20414;-75
2021/03/19 09:42:44;;;;;;;4.03;3.60;;;10.30;67.60;;;;;;4992108;28;20395;-75
2021/03/19 09:45:21;;;;;;;4.00;3.60;;;10.40;67.80;;;;;;4992066;28;20817;-75
2021/03/19 09:47:49;;;;;;;3.78;3.40;;;10.00;63.60;;;;;;5007326;28;20406;-74
2021/03/19 09:50:17;;;;;;;4.00;3.60;;;;;;;;;;4992016;28;20397;-75
2021/03/19 09:52:55;;;;;;;5.85;3.67;;;;;;;;;;4990384;28;20398;-75
2021/03/19 09:55:22;;;;;;;4.25;3.95;;;;;;;;;;4987193;28;20402;-75
2021/03/19 09:57:51;;;;;;;4.72;4.20;;;8.70;67.90;;;;;;4992148;28;20577;-75
2021/03/19 10:00:20;;;;;;;5.07;4.50;;;8.00;78.50;;;;;;4992851;28;20481;-74
2021/03/19 10:02:46;;;;;;;5.18;4.40;;;7.80;81.20;;;;;;5007012;28;20425;-75
2021/03/19 10:05:15;;;;;;;5.00;4.57;;;7.80;81.80;;;;;;4992191;28;20395;-74
2021/03/19 10:07:44;;;;;;;5.82;5.10;;;7.70;81.30;;;;;;4990257;28;20498;-75
2021/03/19 10:10:27;;;;;;;6.18;4.18;;;7.60;81.50;;;;;;4992456;28;20398;-75
2021/03/19 10:13:05;;;;;;;4.93;4.43;;;7.80;79.50;;;;;;4991264;28;20481;-74
2021/03/19 10:15:31;;;;;;;4.78;4.28;;;7.70;77.40;;;;;;4990631;28;20398;-75
2021/03/19 10:17:59;;;;;;;5.07;4.57;;;7.50;75.40;;;;;;4990798;28;20980;-75
2021/03/19 10:20:28;;;;;;;5.43;4.55;;;7.50;77.10;;;;;;4990238;28;20402;-75
2021/03/19 10:22:56;;;;;;;4.25;3.85;;;7.40;74.60;;;;;;4992871;28;20394;-75
2021/03/19 10:25:30;;;;;;;4.10;3.58;;;7.30;74.90;;;;;;4992872;28;20428;-74
2021/03/19 10:27:59;;;;;;;3.72;3.42;;;7.30;75.40;;;;;;4994632;28;20397;-75
2021/03/19 10:30:31;;;;;;;3.90;3.53;;;7.30;74.60;;;;;;4994932;28;20885;-75
2021/03/19 10:33:06;;;;;;;4.05;3.65;;;7.30;73.50;;;;;;4993762;28;20442;-75
2021/03/19 10:35:36;;;;;;;3.85;3.33;;;7.20;72.00;;;;;;4993136;28;20420;-75
2021/03/19 10:38:12;;;;;;;3.78;3.40;;;7.30;70.80;;;;;;5010710;28;20418;-74
2021/03/19 10:40:40;;;;;;;4.15;3.58;;;7.50;69.50;;;;;;5010726;28;20497;-75
2021/03/19 10:43:16;;;;;;;3.80;3.50;;;7.50;71.50;;;;;;4987734;28;20400;-74
2021/03/19 10:45:50;;;;;;;4.15;3.70;;;7.50;69.50;;;;;;4989563;28;20386;-74
2021/03/19 10:48:25;;;;;;;3.97;3.67;;;7.60;69.60;;;;;;5011350;28;20798;-75
2021/03/19 10:51:07;;;;;;;3.55;3.25;;;7.70;70.70;;;;;;4995959;28;20398;-74
2021/03/19 10:53:55;;;;;;;4.17;3.10;;;7.90;69.10;;;;;;4992008;28;20400;-75
2021/03/19 10:56:22;;;;;;;3.35;2.63;;;8.00;67.30;;;;;;4991664;28;20890;-74
2021/03/19 10:58:53;;;;;;;4.70;3.97;;;8.20;66.00;;;;;;4992669;28;20437;-74
2021/03/19 11:01:36;;;;;;;3.70;3.40;;;8.30;67.80;;;;;;4994964;28;20414;-75
2021/03/19 11:04:05;;;;;;;3.90;3.55;;;8.30;68.70;;;;;;4995174;28;20468;-74
2021/03/19 11:06:38;;;;;;;3.90;3.50;;;8.40;69.80;;;;;;4993445;28;20472;-75
2021/03/19 11:09:14;;;;;;;3.85;3.55;;;8.30;70.00;;;;;;5009729;28;20445;-74
2021/03/19 11:11:42;;;;;;;4.25;3.70;;;;;;;;;;5009786;28;20399;-75
2021/03/19 11:14:10;;;;;;;4.40;3.53;;;7.70;68.90;;;;;;4992229;28;20399;-74
2021/03/19 11:16:40;;;;;;;4.18;3.15;;;7.40;72.10;;;;;;5009201;28;20461;-74
2021/03/19 11:19:08;;;;;;;3.22;2.92;;;7.30;71.30;;;;;;4994736;28;20426;-75
2021/03/19 11:21:37;;;;;;;4.22;3.22;;;7.20;72.30;;;;;;4990727;28;20426;-72
2021/03/19 11:24:15;;;;;;;4.05;3.20;;;7.20;73.10;;;;;;4993963;28;20497;-74
2021/03/19 11:26:42;;;;;;;3.28;2.97;;;7.20;74.30;;;;;;4992171;28;20387;-73
2021/03/19 11:29:22;;;;;;;4.17;3.77;;;7.10;74.30;;;;;;5007319;28;20414;-75
2021/03/19 11:31:58;;;;;;;4.47;3.95;;;7.10;75.40;;;;;;4991751;28;20402;-74
2021/03/19 11:34:33;;;;;;;5.70;5.03;;;7.50;74.30;;;;;;4994189;28;20409;-74
2021/03/19 11:37:02;;;;;;;5.73;5.13;;;7.50;77.70;;;;;;4990154;28;20502;-75
2021/03/19 11:39:56;;;;;;;6.53;5.63;;;7.40;79.70;;;;;;4983500;28;20816;-75
2021/03/19 11:42:24;;;;;;;6.53;5.10;;;7.30;83.10;;;;;;5010107;28;20893;-75
2021/03/19 11:44:54;;;;;;;5.07;4.57;;;7.20;87.50;;;;;;4989963;28;20402;-75
2021/03/19 11:47:24;;;;;;;4.82;4.35;;;7.10;89.90;;;;;;5009717;28;20410;-74
2021/03/19 11:49:52;;;;;;;5.18;4.70;;;6.90;90.40;;;;;;4995196;28;20944;-74
2021/03/19 11:52:20;;;;;;;5.38;4.55;;;6.80;91.50;;;;;;4994913;28;20442;-74
2021/03/19 11:54:47;;;;;;;6.38;5.43;;;6.50;92.50;;;;;;4992256;28;20460;-74
2021/03/19 11:57:14;;;;;;;6.93;5.50;;;;;;;;;;4994783;28;20728;-74
2021/03/19 11:59:40;;;;;;;5.70;5.10;;;;;;;;;;4987536;28;20823;-74
2021/03/19 12:02:13;;;;;;;5.35;4.85;;;;;;;;;;4985569;28;20418;-74
2021/03/19 12:04:40;;;;;;;5.30;4.80;;;;;;;;;;4993910;28;20398;-75
2021/03/19 12:07:07;;;;;;;5.68;5.05;;;;;;;;;;4991562;28;20408;-74
2021/03/19 12:09:33;;;;;;;5.90;5.38;;;6.20;95.10;;;;;;4988634;28;20400;-74
2021/03/19 12:11:59;;;;;;;5.45;4.95;;;5.70;98.30;;;;;;4992320;28;20448;-74
2021/03/19 12:14:26;;;;;;;5.87;5.30;;;5.60;99.10;;;;;;4994842;28;20801;-74
2021/03/19 12:16:53;;;;;;;6.80;5.73;;;5.50;99.30;;;;;;4994542;28;20406;-74
2021/03/19 12:19:20;;;;;;;7.00;5.97;;;5.60;99.40;;;;;;4994622;28;20418;-74
2021/03/19 12:21:47;;;;;;;6.72;6.07;;;5.50;99.90;;;;;;4993058;28;20391;-74
2021/03/19 12:24:14;;;;;;;6.85;5.75;;;5.60;99.90;;;;;;4993623;28;20406;-73
2021/03/19 12:26:40;;;;;;;6.20;5.60;;;5.50;99.10;;;;;;4991805;28;20394;-74
2021/03/19 12:29:06;;;;;;;6.60;5.88;;;5.60;99.30;;;;;;4990764;28;20960;-74
2021/03/19 12:31:32;;;;;;;6.68;5.55;;;5.70;99.30;;;;;;5009700;28;20426;-75
2021/03/19 12:33:58;;;;;;;5.65;5.18;;;5.80;99.00;;;;;;4993155;28;20941;-75
2021/03/19 12:36:24;;;;;;;5.90;5.40;;;6.00;98.80;;;;;;4993985;28;20461;-75
2021/03/19 12:38:51;;;;;;;5.80;5.30;;;6.00;98.30;;;;;;4993539;28;20426;-74
2021/03/19 12:41:17;;;;;;;5.97;5.38;;;6.00;97.80;;;;;;4994407;28;20381;-75
2021/03/19 12:43:43;;;;;;;5.60;5.10;;;6.10;98.60;;;;;;5009102;28;20399;-75
2021/03/19 12:46:09;;;;;;;5.72;5.13;;;6.20;98.40;;;;;;4992976;28;20395;-75
2021/03/19 12:48:35;;;;;;;5.27;4.83;;;6.30;98.20;;;;;;4994208;28;20386;-75
2021/03/19 12:51:01;;;;;;;5.30;4.80;;;6.60;96.90;;;;;;4993976;28;20481;-75
2021/03/19 12:53:29;;;;;;;5.40;4.90;;;;;;;;;;4994248;28;20490;-75
2021/03/19 12:56:01;;;;;;;5.07;4.57;;;6.80;96.80;;;;;;4993797;28;20434;-75
2021/03/19 12:58:27;;;;;;;4.95;4.45;;;7.30;96.40;;;;;;4993843;28;20416;-74
2021/03/19 13:00:53;;;;;;;4.75;4.35;;;7.40;95.70;;;;;;4993804;28;20464;-75
2021/03/19 13:03:19;;;;;;;4.97;4.55;;;;;;;;;;4993979;28;20387;-75
2021/03/19 13:05:45;;;;;;;4.07;3.67;;;7.70;94.60;;;;;;5005649;28;20467;-74
2021/03/19 13:08:11;;;;;;;3.88;3.58;;;8.60;92.50;;;;;;5008646;28;20767;-75
2021/03/19 13:10:39;;;;;;;3.80;3.50;;;8.70;91.40;;;;;;4991154;28;20401;-74
2021/03/19 13:13:07;;;;;;;3.97;3.67;;;8.80;90.90;;;;;;4991689;28;20424;-74
2021/03/19 13:15:35;;;;;;;3.85;3.55;;;8.50;89.80;;;;;;4993684;28;20398;-74
2021/03/19 13:18:02;;;;;;;3.70;3.40;;;8.60;91.90;;;;;;4993540;28;20421;-74
2021/03/19 13:20:29;;;;;;;3.50;3.20;;;8.40;89.00;;;;;;4985953;28;20426;-74
2021/03/19 13:22:55;;;;;;;5.13;3.67;;;;;;;;;;4989359;28;20426;-74
2021/03/19 13:25:23;;;;;;;3.80;3.50;;;9.10;90.50;;;;;;5008463;28;20398;-74
2021/03/19 13:27:50;;;;;;;3.85;3.45;;;9.50;86.50;;;;;;4993643;28;20422;-74
2021/03/19 13:30:17;;;;;;;3.85;3.55;;;;;;;;;;4993280;28;20403;-74
2021/03/19 13:32:46;;;;;;;4.55;4.15;;;10.00;84.70;;;;;;4985779;28;20404;-74
2021/03/19 13:35:17;;;;;;;3.92;3.63;;;10.20;79.30;;;;;;4991384;28;20401;-74
2021/03/19 13:37:43;;;;;;;4.07;3.60;;;10.20;80.70;;;;;;4990097;28;20404;-74
2021/03/19 13:40:10;;;;;;;4.53;4.13;;;10.50;78.80;;;;;;5008205;28;20894;-75